sensor_id;sensor_type;location;lat;lon;timestamp;temperature;humidity
39847;DHT22;25517;52.422;10.782;2024-02-04T00:02:06;7.70;99.90
39847;DHT22;25517;52.422;10.782;2024-02-04T00:04:33;7.70;99.90
39847;DHT22;25517;52.422;10.782;2024-02-04T00:06:59;7.70;99.90
39847;DHT22;25517;52.422;10.782;2024-02-04T00:09:25;7.70;99.90
39847;DHT22;25517;52.422;10.782;2024-02-04T00:11:53;7.70;99.90
39847;DHT22;25517;52.422;10.782;2024-02-04T00:14:19;7.60;99.90
39847;DHT22;25517;52.422;10.782;2024-02-04T00:16:45;7.60;99.90
39847;DHT22;25517;52.422;10.782;2024-02-04T00:19:10;7.60;99.90
39847;DHT22;25517;52.422;10.782;2024-02-04T00:21:36;7.60;99.90
39847;DHT22;25517;52.422;10.782;2024-02-04T00:24:02;7.60;99.90
39847;DHT22;25517;52.422;10.782;2024-02-04T00:26:27;7.50;99.90
39847;DHT22;25517;52.422;10.782;2024-02-04T00:28:53;7.50;99.90
39847;DHT22;25517;52.422;10.782;2024-02-04T00:31:19;7.50;99.90
39847;DHT22;25517;52.422;10.782;2024-02-04T00:33:44;7.50;99.90
39847;DHT22;25517;52.422;10.782;2024-02-04T00:36:10;7.50;99.90
39847;DHT22;25517;52.422;10.782;2024-02-04T00:38:35;7.50;99.90
39847;DHT22;25517;52.422;10.782;2024-02-04T00:41:01;7.50;99.90
39847;DHT22;25517;52.422;10.782;2024-02-04T00:43:26;7.50;99.90
39847;DHT22;25517;52.422;10.782;2024-02-04T00:45:52;7.50;99.90
39847;DHT22;25517;52.422;10.782;2024-02-04T00:48:19;7.40;99.90
39847;DHT22;25517;52.422;10.782;2024-02-04T00:50:45;7.40;99.90
39847;DHT22;25517;52.422;10.782;2024-02-04T00:53:10;7.40;99.90
39847;DHT22;25517;52.422;10.782;2024-02-04T00:55:36;7.40;99.90
39847;DHT22;25517;52.422;10.782;2024-02-04T00:58:01;7.40;99.90
39847;DHT22;25517;52.422;10.782;2024-02-04T01:00:27;7.40;99.90
39847;DHT22;25517;52.422;10.782;2024-02-04T01:02:53;7.40;99.90
39847;DHT22;25517;52.422;10.782;2024-02-04T01:05:18;7.40;99.90
39847;DHT22;25517;52.422;10.782;2024-02-04T01:07:44;7.40;99.90
39847;DHT22;25517;52.422;10.782;2024-02-04T01:10:10;7.50;99.90
39847;DHT22;25517;52.422;10.782;2024-02-04T01:12:36;7.50;99.90
39847;DHT22;25517;52.422;10.782;2024-02-04T01:15:02;7.50;99.90
39847;DHT22;25517;52.422;10.782;2024-02-04T01:17:30;7.50;99.90
39847;DHT22;25517;52.422;10.782;2024-02-04T01:19:56;7.50;99.90
39847;DHT22;25517;52.422;10.782;2024-02-04T01:22:21;7.50;99.90
39847;DHT22;25517;52.422;10.782;2024-02-04T01:24:51;7.50;99.90
39847;DHT22;25517;52.422;10.782;2024-02-04T01:27:17;7.40;99.90
39847;DHT22;25517;52.422;10.782;2024-02-04T01:29:43;7.40;99.90
39847;DHT22;25517;52.422;10.782;2024-02-04T01:32:08;7.40;99.90
39847;DHT22;25517;52.422;10.782;2024-02-04T01:34:34;7.40;99.90
39847;DHT22;25517;52.422;10.782;2024-02-04T01:36:59;7.40;99.90
39847;DHT22;25517;52.422;10.782;2024-02-04T01:39:25;7.40;99.90
39847;DHT22;25517;52.422;10.782;2024-02-04T01:41:50;7.40;99.90
39847;DHT22;25517;52.422;10.782;2024-02-04T01:44:16;7.40;99.90
39847;DHT22;25517;52.422;10.782;2024-02-04T01:46:43;7.40;99.90
39847;DHT22;25517;52.422;10.782;2024-02-04T01:49:09;7.40;99.90
39847;DHT22;25517;52.422;10.782;2024-02-04T01:51:36;7.40;99.90
39847;DHT22;25517;52.422;10.782;2024-02-04T01:54:03;7.30;99.90
39847;DHT22;25517;52.422;10.782;2024-02-04T01:56:29;7.40;99.90
39847;DHT22;25517;52.422;10.782;2024-02-04T01:58:55;7.40;99.90
39847;DHT22;25517;52.422;10.782;2024-02-04T02:01:22;7.30;99.90
39847;DHT22;25517;52.422;10.782;2024-02-04T02:03:48;7.30;99.90
39847;DHT22;25517;52.422;10.782;2024-02-04T02:06:15;7.30;99.90
39847;DHT22;25517;52.422;10.782;2024-02-04T02:08:41;7.30;99.90
39847;DHT22;25517;52.422;10.782;2024-02-04T02:11:19;7.30;99.90
39847;DHT22;25517;52.422;10.782;2024-02-04T02:13:50;7.30;99.90
39847;DHT22;25517;52.422;10.782;2024-02-04T02:16:19;7.40;99.90
39847;DHT22;25517;52.422;10.782;2024-02-04T02:18:53;7.30;99.90
39847;DHT22;25517;52.422;10.782;2024-02-04T02:24:01;7.40;99.90
39847;DHT22;25517;52.422;10.782;2024-02-04T02:26:33;7.40;99.90
39847;DHT22;25517;52.422;10.782;2024-02-04T02:28:59;7.40;99.90
39847;DHT22;25517;52.422;10.782;2024-02-04T02:31:24;7.40;99.90
39847;DHT22;25517;52.422;10.782;2024-02-04T02:33:50;7.30;99.90
39847;DHT22;25517;52.422;10.782;2024-02-04T02:36:21;7.40;99.90
39847;DHT22;25517;52.422;10.782;2024-02-04T02:38:55;7.30;99.90
39847;DHT22;25517;52.422;10.782;2024-02-04T02:41:25;7.30;99.90
39847;DHT22;25517;52.422;10.782;2024-02-04T02:43:52;7.30;99.90
39847;DHT22;25517;52.422;10.782;2024-02-04T02:46:19;7.30;99.90
39847;DHT22;25517;52.422;10.782;2024-02-04T02:48:45;7.30;99.90
39847;DHT22;25517;52.422;10.782;2024-02-04T02:51:10;7.30;99.90
39847;DHT22;25517;52.422;10.782;2024-02-04T02:53:36;7.30;99.90
39847;DHT22;25517;52.422;10.782;2024-02-04T02:56:02;7.20;99.90
39847;DHT22;25517;52.422;10.782;2024-02-04T02:58:27;7.20;99.90
39847;DHT22;25517;52.422;10.782;2024-02-04T03:00:53;7.20;99.90
39847;DHT22;25517;52.422;10.782;2024-02-04T03:03:18;7.20;99.90
39847;DHT22;25517;52.422;10.782;2024-02-04T03:05:44;7.20;99.90
39847;DHT22;25517;52.422;10.782;2024-02-04T03:08:10;7.10;99.90
39847;DHT22;25517;52.422;10.782;2024-02-04T03:10:35;7.10;99.90
39847;DHT22;25517;52.422;10.782;2024-02-04T03:13:01;7.10;99.90
39847;DHT22;25517;52.422;10.782;2024-02-04T03:15:27;7.10;99.90
39847;DHT22;25517;52.422;10.782;2024-02-04T03:17:53;7.10;99.90
39847;DHT22;25517;52.422;10.782;2024-02-04T03:20:18;7.00;99.90
39847;DHT22;25517;52.422;10.782;2024-02-04T03:22:45;7.00;99.90
39847;DHT22;25517;52.422;10.782;2024-02-04T03:25:11;7.00;99.90
39847;DHT22;25517;52.422;10.782;2024-02-04T03:27:37;7.00;99.90
39847;DHT22;25517;52.422;10.782;2024-02-04T03:30:05;6.90;99.90
39847;DHT22;25517;52.422;10.782;2024-02-04T03:32:30;7.00;99.90
39847;DHT22;25517;52.422;10.782;2024-02-04T03:35:00;6.90;99.90
39847;DHT22;25517;52.422;10.782;2024-02-04T03:37:25;7.00;99.90
39847;DHT22;25517;52.422;10.782;2024-02-04T03:39:51;7.00;99.90
39847;DHT22;25517;52.422;10.782;2024-02-04T03:42:17;7.00;99.90
39847;DHT22;25517;52.422;10.782;2024-02-04T03:44:44;7.10;99.90
39847;DHT22;25517;52.422;10.782;2024-02-04T03:47:09;7.10;99.90
39847;DHT22;25517;52.422;10.782;2024-02-04T03:49:35;7.10;99.90
39847;DHT22;25517;52.422;10.782;2024-02-04T03:52:00;7.10;99.90
39847;DHT22;25517;52.422;10.782;2024-02-04T03:54:26;7.10;99.90
39847;DHT22;25517;52.422;10.782;2024-02-04T03:56:51;7.10;99.90
39847;DHT22;25517;52.422;10.782;2024-02-04T03:59:17;7.10;99.90
39847;DHT22;25517;52.422;10.782;2024-02-04T04:01:47;7.10;99.90
39847;DHT22;25517;52.422;10.782;2024-02-04T04:04:13;7.20;99.90
39847;DHT22;25517;52.422;10.782;2024-02-04T04:06:39;7.20;99.90
39847;DHT22;25517;52.422;10.782;2024-02-04T04:09:05;7.20;99.90
39847;DHT22;25517;52.422;10.782;2024-02-04T04:11:31;7.20;99.90
39847;DHT22;25517;52.422;10.782;2024-02-04T04:13:56;7.20;99.90
39847;DHT22;25517;52.422;10.782;2024-02-04T04:16:22;7.30;99.90
39847;DHT22;25517;52.422;10.782;2024-02-04T04:18:48;7.30;99.90
39847;DHT22;25517;52.422;10.782;2024-02-04T04:21:13;7.30;99.90
39847;DHT22;25517;52.422;10.782;2024-02-04T04:23:39;7.40;99.90
39847;DHT22;25517;52.422;10.782;2024-02-04T04:26:04;7.40;99.90
39847;DHT22;25517;52.422;10.782;2024-02-04T04:28:31;7.40;99.90
39847;DHT22;25517;52.422;10.782;2024-02-04T04:30:56;7.40;99.90
39847;DHT22;25517;52.422;10.782;2024-02-04T04:33:22;7.40;99.90
39847;DHT22;25517;52.422;10.782;2024-02-04T04:35:47;7.40;99.90
39847;DHT22;25517;52.422;10.782;2024-02-04T04:38:13;7.30;99.90
39847;DHT22;25517;52.422;10.782;2024-02-04T04:40:38;7.30;99.90
39847;DHT22;25517;52.422;10.782;2024-02-04T04:43:06;7.30;99.90
39847;DHT22;25517;52.422;10.782;2024-02-04T04:45:32;7.30;99.90
39847;DHT22;25517;52.422;10.782;2024-02-04T04:47:57;7.30;99.90
39847;DHT22;25517;52.422;10.782;2024-02-04T04:50:23;7.30;99.90
39847;DHT22;25517;52.422;10.782;2024-02-04T04:52:48;7.30;99.90
39847;DHT22;25517;52.422;10.782;2024-02-04T04:55:14;7.30;99.90
39847;DHT22;25517;52.422;10.782;2024-02-04T04:57:40;7.30;99.90
39847;DHT22;25517;52.422;10.782;2024-02-04T05:00:05;7.30;99.90
39847;DHT22;25517;52.422;10.782;2024-02-04T05:02:39;7.30;99.90
39847;DHT22;25517;52.422;10.782;2024-02-04T05:05:05;7.30;99.90
39847;DHT22;25517;52.422;10.782;2024-02-04T05:07:31;7.30;99.90
39847;DHT22;25517;52.422;10.782;2024-02-04T05:09:57;7.30;99.90
39847;DHT22;25517;52.422;10.782;2024-02-04T05:12:22;7.30;99.90
39847;DHT22;25517;52.422;10.782;2024-02-04T05:14:48;7.30;99.90
39847;DHT22;25517;52.422;10.782;2024-02-04T05:17:14;7.40;99.90
39847;DHT22;25517;52.422;10.782;2024-02-04T05:19:42;7.30;99.90
39847;DHT22;25517;52.422;10.782;2024-02-04T05:22:08;7.40;99.90
39847;DHT22;25517;52.422;10.782;2024-02-04T05:24:34;7.30;99.90
39847;DHT22;25517;52.422;10.782;2024-02-04T05:26:59;7.30;99.90
39847;DHT22;25517;52.422;10.782;2024-02-04T05:29:25;7.30;99.90
39847;DHT22;25517;52.422;10.782;2024-02-04T05:31:50;7.30;99.90
39847;DHT22;25517;52.422;10.782;2024-02-04T05:34:16;7.40;99.90
39847;DHT22;25517;52.422;10.782;2024-02-04T05:36:41;7.30;99.90
39847;DHT22;25517;52.422;10.782;2024-02-04T05:39:14;7.30;99.90
39847;DHT22;25517;52.422;10.782;2024-02-04T05:41:41;7.30;99.90
39847;DHT22;25517;52.422;10.782;2024-02-04T05:44:07;7.30;99.90
39847;DHT22;25517;52.422;10.782;2024-02-04T05:46:37;7.30;99.90
39847;DHT22;25517;52.422;10.782;2024-02-04T05:49:04;7.30;99.90
39847;DHT22;25517;52.422;10.782;2024-02-04T05:51:32;7.30;99.90
39847;DHT22;25517;52.422;10.782;2024-02-04T05:53:58;7.30;99.90
39847;DHT22;25517;52.422;10.782;2024-02-04T05:56:24;7.40;99.90
39847;DHT22;25517;52.422;10.782;2024-02-04T05:58:49;7.30;99.90
39847;DHT22;25517;52.422;10.782;2024-02-04T06:01:15;7.30;99.90
39847;DHT22;25517;52.422;10.782;2024-02-04T06:03:42;7.30;99.90
39847;DHT22;25517;52.422;10.782;2024-02-04T06:06:15;7.30;99.90
39847;DHT22;25517;52.422;10.782;2024-02-04T06:08:41;7.30;99.90
39847;DHT22;25517;52.422;10.782;2024-02-04T06:11:10;7.30;99.90
39847;DHT22;25517;52.422;10.782;2024-02-04T06:13:36;7.30;99.90
39847;DHT22;25517;52.422;10.782;2024-02-04T06:16:01;7.30;99.90
39847;DHT22;25517;52.422;10.782;2024-02-04T06:18:27;7.20;99.90
39847;DHT22;25517;52.422;10.782;2024-02-04T06:20:53;7.30;99.90
39847;DHT22;25517;52.422;10.782;2024-02-04T06:23:18;7.30;99.90
39847;DHT22;25517;52.422;10.782;2024-02-04T06:25:45;7.20;99.90
39847;DHT22;25517;52.422;10.782;2024-02-04T06:28:10;7.20;99.90
39847;DHT22;25517;52.422;10.782;2024-02-04T06:30:36;7.20;99.90
39847;DHT22;25517;52.422;10.782;2024-02-04T06:33:01;7.20;99.90
39847;DHT22;25517;52.422;10.782;2024-02-04T06:35:28;7.20;99.90
39847;DHT22;25517;52.422;10.782;2024-02-04T06:37:53;7.30;99.90
39847;DHT22;25517;52.422;10.782;2024-02-04T06:40:19;7.20;99.90
39847;DHT22;25517;52.422;10.782;2024-02-04T06:42:44;7.30;99.90
39847;DHT22;25517;52.422;10.782;2024-02-04T06:45:10;7.30;99.90
39847;DHT22;25517;52.422;10.782;2024-02-04T06:47:35;7.30;99.90
39847;DHT22;25517;52.422;10.782;2024-02-04T06:50:01;7.40;99.90
39847;DHT22;25517;52.422;10.782;2024-02-04T06:52:30;7.40;99.90
39847;DHT22;25517;52.422;10.782;2024-02-04T06:54:56;7.30;99.90
39847;DHT22;25517;52.422;10.782;2024-02-04T06:57:24;7.40;99.90
39847;DHT22;25517;52.422;10.782;2024-02-04T06:59:55;7.40;99.90
39847;DHT22;25517;52.422;10.782;2024-02-04T07:02:20;7.40;99.90
39847;DHT22;25517;52.422;10.782;2024-02-04T07:04:46;7.30;99.90
39847;DHT22;25517;52.422;10.782;2024-02-04T07:07:11;7.40;99.90
39847;DHT22;25517;52.422;10.782;2024-02-04T07:09:37;7.40;99.90
39847;DHT22;25517;52.422;10.782;2024-02-04T07:12:03;7.40;99.90
39847;DHT22;25517;52.422;10.782;2024-02-04T07:14:28;7.40;99.90
39847;DHT22;25517;52.422;10.782;2024-02-04T07:16:54;7.40;99.90
39847;DHT22;25517;52.422;10.782;2024-02-04T07:19:19;7.50;99.90
39847;DHT22;25517;52.422;10.782;2024-02-04T07:21:45;7.50;99.90
39847;DHT22;25517;52.422;10.782;2024-02-04T07:24:10;7.40;99.90
39847;DHT22;25517;52.422;10.782;2024-02-04T07:26:36;7.50;99.90
39847;DHT22;25517;52.422;10.782;2024-02-04T07:29:01;7.50;99.90
39847;DHT22;25517;52.422;10.782;2024-02-04T07:31:27;7.50;99.90
39847;DHT22;25517;52.422;10.782;2024-02-04T07:33:52;7.60;99.90
39847;DHT22;25517;52.422;10.782;2024-02-04T07:36:18;7.60;99.90
39847;DHT22;25517;52.422;10.782;2024-02-04T07:38:43;7.60;99.90
39847;DHT22;25517;52.422;10.782;2024-02-04T07:41:09;7.60;99.90
39847;DHT22;25517;52.422;10.782;2024-02-04T07:43:34;7.60;99.90
39847;DHT22;25517;52.422;10.782;2024-02-04T07:46:00;7.60;99.90
39847;DHT22;25517;52.422;10.782;2024-02-04T07:48:27;7.60;99.90
39847;DHT22;25517;52.422;10.782;2024-02-04T07:50:53;7.60;99.90
39847;DHT22;25517;52.422;10.782;2024-02-04T07:53:19;7.60;99.90
39847;DHT22;25517;52.422;10.782;2024-02-04T07:55:44;7.70;99.90
39847;DHT22;25517;52.422;10.782;2024-02-04T07:58:10;7.70;99.90
39847;DHT22;25517;52.422;10.782;2024-02-04T08:00:35;7.80;99.90
39847;DHT22;25517;52.422;10.782;2024-02-04T08:03:00;7.70;99.90
39847;DHT22;25517;52.422;10.782;2024-02-04T08:05:26;7.80;99.90
39847;DHT22;25517;52.422;10.782;2024-02-04T08:07:52;7.80;99.90
39847;DHT22;25517;52.422;10.782;2024-02-04T08:10:17;7.90;99.90
39847;DHT22;25517;52.422;10.782;2024-02-04T08:12:43;7.90;99.90
39847;DHT22;25517;52.422;10.782;2024-02-04T08:15:09;7.90;99.90
39847;DHT22;25517;52.422;10.782;2024-02-04T08:17:35;7.90;99.90
39847;DHT22;25517;52.422;10.782;2024-02-04T08:20:00;7.90;99.90
39847;DHT22;25517;52.422;10.782;2024-02-04T08:22:26;8.00;99.90
39847;DHT22;25517;52.422;10.782;2024-02-04T08:24:51;8.00;99.90
39847;DHT22;25517;52.422;10.782;2024-02-04T08:27:17;8.00;99.90
39847;DHT22;25517;52.422;10.782;2024-02-04T08:29:43;8.10;99.90
39847;DHT22;25517;52.422;10.782;2024-02-04T08:32:09;8.10;99.90
39847;DHT22;25517;52.422;10.782;2024-02-04T08:34:34;8.20;99.90
39847;DHT22;25517;52.422;10.782;2024-02-04T08:37:00;8.20;99.90
39847;DHT22;25517;52.422;10.782;2024-02-04T08:39:26;8.30;99.90
39847;DHT22;25517;52.422;10.782;2024-02-04T08:41:52;8.30;99.90
39847;DHT22;25517;52.422;10.782;2024-02-04T08:44:17;8.40;99.90
39847;DHT22;25517;52.422;10.782;2024-02-04T08:46:43;8.50;99.90
39847;DHT22;25517;52.422;10.782;2024-02-04T08:49:08;8.50;99.90
39847;DHT22;25517;52.422;10.782;2024-02-04T08:51:34;8.60;99.90
39847;DHT22;25517;52.422;10.782;2024-02-04T08:54:00;8.60;99.90
39847;DHT22;25517;52.422;10.782;2024-02-04T08:56:25;8.60;99.90
39847;DHT22;25517;52.422;10.782;2024-02-04T08:58:51;8.60;99.90
39847;DHT22;25517;52.422;10.782;2024-02-04T09:01:17;8.60;99.90
39847;DHT22;25517;52.422;10.782;2024-02-04T09:03:44;8.60;99.90
39847;DHT22;25517;52.422;10.782;2024-02-04T09:06:09;8.60;99.90
39847;DHT22;25517;52.422;10.782;2024-02-04T09:08:35;8.70;99.90
39847;DHT22;25517;52.422;10.782;2024-02-04T09:11:01;8.70;99.90
39847;DHT22;25517;52.422;10.782;2024-02-04T09:13:26;8.70;99.90
39847;DHT22;25517;52.422;10.782;2024-02-04T09:15:52;8.70;99.90
39847;DHT22;25517;52.422;10.782;2024-02-04T09:18:19;8.70;99.90
39847;DHT22;25517;52.422;10.782;2024-02-04T09:20:45;8.70;99.90
39847;DHT22;25517;52.422;10.782;2024-02-04T09:23:10;8.70;99.90
39847;DHT22;25517;52.422;10.782;2024-02-04T09:25:36;8.70;99.90
39847;DHT22;25517;52.422;10.782;2024-02-04T09:28:01;8.70;99.90
39847;DHT22;25517;52.422;10.782;2024-02-04T09:30:27;8.70;99.90
39847;DHT22;25517;52.422;10.782;2024-02-04T09:32:53;8.70;99.90
39847;DHT22;25517;52.422;10.782;2024-02-04T09:35:19;8.70;99.90
39847;DHT22;25517;52.422;10.782;2024-02-04T09:37:44;8.70;99.90
39847;DHT22;25517;52.422;10.782;2024-02-04T09:40:10;8.80;99.90
39847;DHT22;25517;52.422;10.782;2024-02-04T09:42:36;8.80;99.90
39847;DHT22;25517;52.422;10.782;2024-02-04T09:45:02;8.80;99.90
39847;DHT22;25517;52.422;10.782;2024-02-04T09:47:29;8.90;99.90
39847;DHT22;25517;52.422;10.782;2024-02-04T09:49:54;8.90;99.90
39847;DHT22;25517;52.422;10.782;2024-02-04T09:52:27;8.90;99.90
39847;DHT22;25517;52.422;10.782;2024-02-04T09:55:00;8.80;99.90
39847;DHT22;25517;52.422;10.782;2024-02-04T09:57:26;8.80;99.90
39847;DHT22;25517;52.422;10.782;2024-02-04T09:59:52;8.70;99.90
39847;DHT22;25517;52.422;10.782;2024-02-04T10:02:17;8.80;99.90
39847;DHT22;25517;52.422;10.782;2024-02-04T10:04:43;8.80;99.90
39847;DHT22;25517;52.422;10.782;2024-02-04T10:07:09;8.80;99.90
39847;DHT22;25517;52.422;10.782;2024-02-04T10:09:35;8.70;99.90
39847;DHT22;25517;52.422;10.782;2024-02-04T10:12:01;8.70;99.90
39847;DHT22;25517;52.422;10.782;2024-02-04T10:14:26;8.70;99.90
39847;DHT22;25517;52.422;10.782;2024-02-04T10:16:52;8.70;99.90
39847;DHT22;25517;52.422;10.782;2024-02-04T10:19:18;8.70;99.90
39847;DHT22;25517;52.422;10.782;2024-02-04T10:21:43;8.70;99.90
39847;DHT22;25517;52.422;10.782;2024-02-04T10:24:09;8.80;99.90
39847;DHT22;25517;52.422;10.782;2024-02-04T10:26:35;8.80;99.90
39847;DHT22;25517;52.422;10.782;2024-02-04T10:29:03;8.70;99.90
39847;DHT22;25517;52.422;10.782;2024-02-04T10:31:28;8.70;99.90
39847;DHT22;25517;52.422;10.782;2024-02-04T10:33:55;8.70;99.90
39847;DHT22;25517;52.422;10.782;2024-02-04T10:36:21;8.70;99.90
39847;DHT22;25517;52.422;10.782;2024-02-04T10:38:46;8.70;99.90
39847;DHT22;25517;52.422;10.782;2024-02-04T10:41:15;8.70;99.90
39847;DHT22;25517;52.422;10.782;2024-02-04T10:43:42;8.80;99.90
39847;DHT22;25517;52.422;10.782;2024-02-04T10:46:15;8.80;99.90
39847;DHT22;25517;52.422;10.782;2024-02-04T10:48:43;8.80;99.90
39847;DHT22;25517;52.422;10.782;2024-02-04T10:51:15;8.80;99.90
39847;DHT22;25517;52.422;10.782;2024-02-04T10:53:45;8.80;99.90
39847;DHT22;25517;52.422;10.782;2024-02-04T10:56:30;8.80;99.90
39847;DHT22;25517;52.422;10.782;2024-02-04T10:58:58;8.80;99.90
39847;DHT22;25517;52.422;10.782;2024-02-04T11:01:26;8.80;99.90
39847;DHT22;25517;52.422;10.782;2024-02-04T11:03:52;8.80;99.90
39847;DHT22;25517;52.422;10.782;2024-02-04T11:06:20;8.80;99.90
39847;DHT22;25517;52.422;10.782;2024-02-04T11:08:46;8.80;99.90
39847;DHT22;25517;52.422;10.782;2024-02-04T11:11:12;8.70;99.90
39847;DHT22;25517;52.422;10.782;2024-02-04T11:13:39;8.70;99.90
39847;DHT22;25517;52.422;10.782;2024-02-04T11:16:20;8.60;99.90
39847;DHT22;25517;52.422;10.782;2024-02-04T11:18:56;8.60;99.90
39847;DHT22;25517;52.422;10.782;2024-02-04T11:26:49;8.80;99.90
39847;DHT22;25517;52.422;10.782;2024-02-04T11:29:14;8.80;99.90
39847;DHT22;25517;52.422;10.782;2024-02-04T11:31:41;8.80;99.90
39847;DHT22;25517;52.422;10.782;2024-02-04T11:34:07;8.90;99.90
39847;DHT22;25517;52.422;10.782;2024-02-04T11:36:38;8.90;99.90
39847;DHT22;25517;52.422;10.782;2024-02-04T11:39:14;8.90;99.90
39847;DHT22;25517;52.422;10.782;2024-02-04T11:41:47;8.90;99.90
39847;DHT22;25517;52.422;10.782;2024-02-04T11:44:22;9.00;99.90
39847;DHT22;25517;52.422;10.782;2024-02-04T11:46:49;9.00;99.90
39847;DHT22;25517;52.422;10.782;2024-02-04T11:49:15;9.10;99.90
39847;DHT22;25517;52.422;10.782;2024-02-04T11:51:51;9.20;99.90
39847;DHT22;25517;52.422;10.782;2024-02-04T11:54:17;9.30;99.90
39847;DHT22;25517;52.422;10.782;2024-02-04T11:56:49;9.40;99.90
39847;DHT22;25517;52.422;10.782;2024-02-04T11:59:22;9.70;99.90
39847;DHT22;25517;52.422;10.782;2024-02-04T12:01:48;9.80;99.90
39847;DHT22;25517;52.422;10.782;2024-02-04T12:04:15;9.70;99.90
39847;DHT22;25517;52.422;10.782;2024-02-04T12:06:42;9.80;99.90
39847;DHT22;25517;52.422;10.782;2024-02-04T12:09:09;9.70;99.90
39847;DHT22;25517;52.422;10.782;2024-02-04T12:11:35;9.70;99.90
39847;DHT22;25517;52.422;10.782;2024-02-04T12:14:07;9.70;99.90
39847;DHT22;25517;52.422;10.782;2024-02-04T12:16:33;9.60;99.90
39847;DHT22;25517;52.422;10.782;2024-02-04T12:19:01;9.60;99.90
39847;DHT22;25517;52.422;10.782;2024-02-04T12:21:28;9.50;99.90
39847;DHT22;25517;52.422;10.782;2024-02-04T12:23:54;9.30;99.90
39847;DHT22;25517;52.422;10.782;2024-02-04T12:26:21;9.30;99.90
39847;DHT22;25517;52.422;10.782;2024-02-04T12:28:48;9.20;99.90
39847;DHT22;25517;52.422;10.782;2024-02-04T12:31:21;9.10;99.90
39847;DHT22;25517;52.422;10.782;2024-02-04T12:33:56;9.10;99.90
39847;DHT22;25517;52.422;10.782;2024-02-04T12:36:32;9.00;99.90
39847;DHT22;25517;52.422;10.782;2024-02-04T12:39:02;9.00;99.90
39847;DHT22;25517;52.422;10.782;2024-02-04T12:41:29;9.00;99.90
39847;DHT22;25517;52.422;10.782;2024-02-04T12:43:59;9.00;99.90
39847;DHT22;25517;52.422;10.782;2024-02-04T12:46:26;9.00;99.90
39847;DHT22;25517;52.422;10.782;2024-02-04T12:48:56;9.00;99.90
39847;DHT22;25517;52.422;10.782;2024-02-04T12:51:30;9.10;99.90
39847;DHT22;25517;52.422;10.782;2024-02-04T12:54:11;9.10;99.90
39847;DHT22;25517;52.422;10.782;2024-02-04T12:59:08;9.20;99.90
39847;DHT22;25517;52.422;10.782;2024-02-04T13:01:35;9.20;99.90
39847;DHT22;25517;52.422;10.782;2024-02-04T13:04:01;9.30;99.90
39847;DHT22;25517;52.422;10.782;2024-02-04T13:06:27;9.30;99.90
39847;DHT22;25517;52.422;10.782;2024-02-04T13:08:56;9.30;99.90
39847;DHT22;25517;52.422;10.782;2024-02-04T13:11:25;9.30;99.90
39847;DHT22;25517;52.422;10.782;2024-02-04T13:13:50;9.30;99.90
39847;DHT22;25517;52.422;10.782;2024-02-04T13:16:16;9.20;99.90
39847;DHT22;25517;52.422;10.782;2024-02-04T13:18:51;9.20;99.90
39847;DHT22;25517;52.422;10.782;2024-02-04T13:21:16;9.20;99.90
39847;DHT22;25517;52.422;10.782;2024-02-04T13:23:45;9.20;99.90
39847;DHT22;25517;52.422;10.782;2024-02-04T13:26:11;9.20;99.90
39847;DHT22;25517;52.422;10.782;2024-02-04T13:28:37;9.20;99.90
39847;DHT22;25517;52.422;10.782;2024-02-04T13:31:04;9.10;99.90
39847;DHT22;25517;52.422;10.782;2024-02-04T13:33:29;9.20;99.90
39847;DHT22;25517;52.422;10.782;2024-02-04T13:35:55;9.20;99.90
39847;DHT22;25517;52.422;10.782;2024-02-04T13:38:21;9.20;99.90
39847;DHT22;25517;52.422;10.782;2024-02-04T13:40:46;9.20;99.90
39847;DHT22;25517;52.422;10.782;2024-02-04T13:43:12;9.20;99.90
39847;DHT22;25517;52.422;10.782;2024-02-04T13:45:39;9.20;99.90
39847;DHT22;25517;52.422;10.782;2024-02-04T13:48:05;9.20;99.90
39847;DHT22;25517;52.422;10.782;2024-02-04T13:50:31;9.20;99.90
39847;DHT22;25517;52.422;10.782;2024-02-04T13:52:57;9.10;99.90
39847;DHT22;25517;52.422;10.782;2024-02-04T13:55:24;9.10;99.90
39847;DHT22;25517;52.422;10.782;2024-02-04T13:57:50;9.10;99.90
39847;DHT22;25517;52.422;10.782;2024-02-04T14:00:16;9.10;99.90
39847;DHT22;25517;52.422;10.782;2024-02-04T14:02:43;9.00;99.90
39847;DHT22;25517;52.422;10.782;2024-02-04T14:05:08;9.00;99.90
39847;DHT22;25517;52.422;10.782;2024-02-04T14:07:34;9.00;99.90
39847;DHT22;25517;52.422;10.782;2024-02-04T14:10:00;9.00;99.90
39847;DHT22;25517;52.422;10.782;2024-02-04T14:12:25;9.00;99.90
39847;DHT22;25517;52.422;10.782;2024-02-04T14:14:51;9.00;99.90
39847;DHT22;25517;52.422;10.782;2024-02-04T14:17:16;9.00;99.90
39847;DHT22;25517;52.422;10.782;2024-02-04T14:19:42;9.00;99.90
39847;DHT22;25517;52.422;10.782;2024-02-04T14:22:10;9.00;99.90
39847;DHT22;25517;52.422;10.782;2024-02-04T14:24:37;9.00;99.90
39847;DHT22;25517;52.422;10.782;2024-02-04T14:27:03;9.00;99.90
39847;DHT22;25517;52.422;10.782;2024-02-04T14:29:28;9.00;99.90
39847;DHT22;25517;52.422;10.782;2024-02-04T14:31:54;9.00;99.90
39847;DHT22;25517;52.422;10.782;2024-02-04T14:34:21;9.00;99.90
39847;DHT22;25517;52.422;10.782;2024-02-04T14:36:47;9.00;99.90
39847;DHT22;25517;52.422;10.782;2024-02-04T14:39:14;9.00;99.90
39847;DHT22;25517;52.422;10.782;2024-02-04T14:41:39;9.00;99.90
39847;DHT22;25517;52.422;10.782;2024-02-04T14:44:05;9.00;99.90
39847;DHT22;25517;52.422;10.782;2024-02-04T14:46:36;9.00;99.90
39847;DHT22;25517;52.422;10.782;2024-02-04T14:49:02;9.00;99.90
39847;DHT22;25517;52.422;10.782;2024-02-04T14:51:28;8.90;99.90
39847;DHT22;25517;52.422;10.782;2024-02-04T14:53:53;8.90;99.90
39847;DHT22;25517;52.422;10.782;2024-02-04T14:56:19;9.00;99.90
39847;DHT22;25517;52.422;10.782;2024-02-04T14:58:45;9.00;99.90
39847;DHT22;25517;52.422;10.782;2024-02-04T15:01:10;9.00;99.90
39847;DHT22;25517;52.422;10.782;2024-02-04T15:03:36;9.00;99.90
39847;DHT22;25517;52.422;10.782;2024-02-04T15:06:01;9.00;99.90
39847;DHT22;25517;52.422;10.782;2024-02-04T15:08:27;9.00;99.90
39847;DHT22;25517;52.422;10.782;2024-02-04T15:10:53;8.90;99.90
39847;DHT22;25517;52.422;10.782;2024-02-04T15:13:19;9.00;99.90
39847;DHT22;25517;52.422;10.782;2024-02-04T15:15:44;8.90;99.90
39847;DHT22;25517;52.422;10.782;2024-02-04T15:18:11;9.00;99.90
39847;DHT22;25517;52.422;10.782;2024-02-04T15:20:36;8.90;99.90
39847;DHT22;25517;52.422;10.782;2024-02-04T15:23:02;8.90;99.90
39847;DHT22;25517;52.422;10.782;2024-02-04T15:25:29;9.00;99.90
39847;DHT22;25517;52.422;10.782;2024-02-04T15:27:56;9.00;99.90
39847;DHT22;25517;52.422;10.782;2024-02-04T15:30:22;8.90;99.90
39847;DHT22;25517;52.422;10.782;2024-02-04T15:32:47;8.90;99.90
39847;DHT22;25517;52.422;10.782;2024-02-04T15:35:13;8.90;99.90
39847;DHT22;25517;52.422;10.782;2024-02-04T15:37:39;8.90;99.90